Time;durP1;ratioP1;P1;durP2;ratioP2;P2;SDS_P1;SDS_P2;PMS_P1;PMS_P2;Temp;Humidity;BMP_temperature;BMP_pressure;BME280_temperature;BME280_humidity;BME280_pressure;Samples;Min_cycle;Max_cycle;Signal;HPM_P1;HPM_P2
2021/10/23 00:01:27;;;;;;;18.00;5.18;;;;;;;;;;4981865;28;20042;-72
2021/10/23 00:03:53;;;;;;;20.15;5.68;;;;;;;;;;4966165;28;20053;-72
2021/10/23 00:06:20;;;;;;;20.60;5.22;;;;;;;;;;4969080;28;20054;-71
2021/10/23 00:08:46;;;;;;;12.90;5.10;;;;;;;;;;4966577;28;20038;-71
2021/10/23 00:11:13;;;;;;;15.38;4.80;;;;;;;;;;4955054;28;20485;-71
2021/10/23 00:13:39;;;;;;;21.60;5.55;;;;;;;;;;4971020;28;20457;-72
2021/10/23 00:16:05;;;;;;;14.95;4.80;;;;;;;;;;4955509;28;20066;-72
2021/10/23 00:18:32;;;;;;;14.35;5.28;;;;;;;;;;4980907;28;20097;-71
2021/10/23 00:20:58;;;;;;;12.25;5.10;;;;;;;;;;4964605;28;20078;-71
2021/10/23 00:23:25;;;;;;;14.60;4.95;;;;;;;;;;4969504;28;20056;-71
2021/10/23 00:25:52;;;;;;;21.45;5.95;;;;;;;;;;4966042;28;20050;-71
2021/10/23 00:28:18;;;;;;;21.50;4.78;;;;;;;;;;4974462;28;20050;-71
2021/10/23 00:30:45;;;;;;;16.35;5.30;;;;;;;;;;4969618;28;20070;-71
2021/10/23 00:33:11;;;;;;;16.48;5.28;;;;;;;;;;4975797;28;20050;-71
2021/10/23 00:35:37;;;;;;;29.02;8.25;;;;;;;;;;4963400;28;20042;-71
2021/10/23 00:38:04;;;;;;;18.63;5.72;;;;;;;;;;4957793;28;20428;-71
2021/10/23 00:40:30;;;;;;;20.88;6.22;;;;;;;;;;4979303;28;20054;-71
2021/10/23 00:42:59;;;;;;;18.48;6.07;;;;;;;;;;4967282;28;20050;-71
2021/10/23 00:45:25;;;;;;;24.50;6.82;;;;;;;;;;4979665;28;20064;-71
2021/10/23 00:47:52;;;;;;;23.85;6.50;;;;;;;;;;4968688;28;20050;-71
2021/10/23 00:50:18;;;;;;;21.75;7.10;;;;;;;;;;4970657;28;20058;-72
2021/10/23 00:52:46;;;;;;;17.77;7.07;;;;;;;;;;4970614;28;20654;-71
2021/10/23 00:55:13;;;;;;;21.93;6.83;;;;;;;;;;4964703;28;20054;-72
2021/10/23 00:57:39;;;;;;;16.02;6.35;;;;;;;;;;4979137;28;20057;-72
2021/10/23 01:00:07;;;;;;;23.40;7.20;;;;;;;;;;4965528;28;20054;-72
2021/10/23 01:02:33;;;;;;;24.08;7.15;;;;;;;;;;4974920;28;20246;-71
2021/10/23 01:05:00;;;;;;;18.60;8.80;;;;;;;;;;4962697;28;20048;-72
2021/10/23 01:07:26;;;;;;;22.33;6.90;;;;;;;;;;4963508;28;20047;-71
2021/10/23 01:09:52;;;;;;;16.55;6.72;;;;;;;;;;4979682;28;20062;-71
2021/10/23 01:12:19;;;;;;;22.05;7.90;;;;;;;;;;4956834;28;20046;-72
2021/10/23 01:14:46;;;;;;;18.10;7.20;;;;;;;;;;4979812;28;20053;-72
2021/10/23 01:17:18;;;;;;;20.02;7.22;;;;;;;;;;4964802;28;20046;-72
2021/10/23 01:19:47;;;;;;;13.05;6.57;;;;;;;;;;4969968;28;20058;-72
2021/10/23 01:22:13;;;;;;;25.98;8.02;;;;;;;;;;4959930;28;20038;-71
2021/10/23 01:24:40;;;;;;;16.52;8.23;;;;;;;;;;4975208;28;20454;-71
2021/10/23 01:27:08;;;;;;;19.58;7.18;;;;;;;;;;4974456;28;20061;-71
2021/10/23 01:29:35;;;;;;;23.65;7.82;;;;;;;;;;4945241;28;20495;-71
2021/10/23 01:32:02;;;;;;;23.40;8.07;;;;;;;;;;4946480;28;20262;-73
2021/10/23 01:34:28;;;;;;;18.08;8.27;;;;;;;;;;4958985;28;20053;-72
2021/10/23 01:36:59;;;;;;;19.60;8.00;;;;;;;;;;4966996;28;20054;-71
2021/10/23 01:39:26;;;;;;;24.48;8.05;;;;;;;;;;4967292;28;20471;-72
2021/10/23 01:41:53;;;;;;;21.58;8.02;;;;;;;;;;4955380;28;20050;-72
2021/10/23 01:44:23;;;;;;;20.42;8.30;;;;;;;;;;4976495;28;20046;-72
2021/10/23 01:46:50;;;;;;;22.52;8.75;;;;;;;;;;4959928;28;20051;-71
2021/10/23 01:49:16;;;;;;;21.73;8.25;;;;;;;;;;4977886;28;20050;-72
2021/10/23 01:51:43;;;;;;;18.08;7.43;;;;;;;;;;4966342;28;20078;-71
2021/10/23 01:54:10;;;;;;;21.48;8.25;;;;;;;;;;4978868;28;20142;-71
2021/10/23 01:56:39;;;;;;;20.67;7.72;;;;;;;;;;4963020;28;20053;-71
2021/10/23 01:59:05;;;;;;;;;;;;;;;;;;4950632;28;20413;-72
2021/10/23 02:01:31;;;;;;;21.42;7.22;;;;;;;;;;4955818;28;19932;-71
2021/10/23 02:03:58;;;;;;;26.25;8.13;;;;;;;;;;4964481;28;20133;-71
2021/10/23 02:06:24;;;;;;;26.77;8.13;;;;;;;;;;4979084;28;20056;-71
2021/10/23 02:08:50;;;;;;;19.98;7.20;;;;;;;;;;4965988;28;20050;-71
2021/10/23 02:11:17;;;;;;;20.92;7.97;;;;;;;;;;4971584;28;20064;-70
2021/10/23 02:13:44;;;;;;;18.52;7.60;;;;;;;;;;4961894;28;20046;-70
2021/10/23 02:16:11;;;;;;;17.98;7.60;;;;;;;;;;4973071;28;20061;-70
2021/10/23 02:18:37;;;;;;;20.38;8.07;;;;;;;;;;4977681;28;20532;-70
2021/10/23 02:21:06;;;;;;;15.68;7.22;;;;;;;;;;4947306;28;20052;-70
2021/10/23 02:23:33;;;;;;;36.15;9.55;;;;;;;;;;4976550;28;20058;-71
2021/10/23 02:25:59;;;;;;;19.15;7.75;;;;;;;;;;4961902;28;20065;-72
2021/10/23 02:28:25;;;;;;;22.95;7.60;;;;;;;;;;4953305;28;20054;-72
2021/10/23 02:30:52;;;;;;;20.23;7.47;;;;;;;;;;4966373;28;20046;-71
2021/10/23 02:33:18;;;;;;;22.35;7.70;;;;;;;;;;4973488;28;20057;-71
2021/10/23 02:35:45;;;;;;;21.35;7.30;;;;;;;;;;4980973;28;20061;-71
2021/10/23 02:38:12;;;;;;;17.17;7.38;;;;;;;;;;4965665;28;20558;-70
2021/10/23 02:40:38;;;;;;;14.90;7.30;;;;;;;;;;4975202;28;20097;-71
2021/10/23 02:43:05;;;;;;;18.40;8.05;;;;;;;;;;4969717;28;20053;-70
2021/10/23 02:45:32;;;;;;;18.15;8.15;;;;;;;;;;4975072;28;20054;-70
2021/10/23 02:47:58;;;;;;;12.13;7.07;;;;;;;;;;4977389;28;20046;-71
2021/10/23 02:50:25;;;;;;;19.95;7.30;;;;;;;;;;4970173;28;20459;-71
2021/10/23 02:52:53;;;;;;;22.42;7.70;;;;;;;;;;4973235;28;20054;-70
2021/10/23 02:55:20;;;;;;;17.88;7.72;;;;;;;;;;4966192;28;20433;-71
2021/10/23 02:57:47;;;;;;;19.60;8.45;;;;;;;;;;4978884;28;20060;-71
2021/10/23 03:00:14;;;;;;;24.05;8.50;;;;;;;;;;4968682;28;20050;-70
2021/10/23 03:02:42;;;;;;;18.55;8.85;;;;;;;;;;4978296;28;20632;-71
2021/10/23 03:05:08;;;;;;;21.23;7.85;;;;;;;;;;4974594;28;20068;-71
2021/10/23 03:07:35;;;;;;;25.05;8.70;;;;;;;;;;4963630;28;20059;-71
2021/10/23 03:10:01;;;;;;;19.95;7.93;;;;;;;;;;4975505;28;20554;-71
2021/10/23 03:12:28;;;;;;;13.95;7.35;;;;;;;;;;4968962;28;20202;-70
2021/10/23 03:14:55;;;;;;;19.00;7.88;;;;;;;;;;4979930;28;20046;-70
2021/10/23 03:17:21;;;;;;;19.67;7.93;;;;;;;;;;4966151;28;20058;-71
2021/10/23 03:19:48;;;;;;;24.08;7.88;;;;;;;;;;4972901;28;20530;-71
2021/10/23 03:22:14;;;;;;;23.10;8.55;;;;;;;;;;4969425;28;20057;-71
2021/10/23 03:24:40;;;;;;;17.95;8.35;;;;;;;;;;4959170;28;20417;-71
2021/10/23 03:27:07;;;;;;;20.88;7.80;;;;;;;;;;4972976;28;20444;-70
2021/10/23 03:29:33;;;;;;;15.38;7.40;;;;;;;;;;4962464;28;20080;-71
2021/10/23 03:31:59;;;;;;;17.23;7.78;;;;;;;;;;4971840;28;20645;-71
2021/10/23 03:34:26;;;;;;;18.35;8.00;;;;;;;;;;4959858;28;20058;-70
2021/10/23 03:36:52;;;;;;;16.77;8.38;;;;;;;;;;4975881;28;20050;-70
2021/10/23 03:39:18;;;;;;;18.58;7.95;;;;;;;;;;4974626;28;20050;-70
2021/10/23 03:41:45;;;;;;;17.77;8.23;;;;;;;;;;4951034;28;20051;-70
2021/10/23 03:44:11;;;;;;;19.90;8.50;;;;;;;;;;4975786;28;20129;-70
2021/10/23 03:46:37;;;;;;;19.50;8.05;;;;;;;;;;4969285;28;20050;-70
2021/10/23 03:49:05;;;;;;;20.73;8.43;;;;;;;;;;4972866;28;20046;-71
2021/10/23 03:51:31;;;;;;;20.63;7.60;;;;;;;;;;4961087;28;20422;-70
2021/10/23 03:53:57;;;;;;;18.48;7.65;;;;;;;;;;4981041;28;20467;-71
2021/10/23 03:56:24;;;;;;;17.90;7.80;;;;;;;;;;4976234;28;20415;-71
2021/10/23 03:58:50;;;;;;;16.35;8.25;;;;;;;;;;4972834;28;20047;-72
2021/10/23 04:01:16;;;;;;;17.83;8.95;;;;;;;;;;4953477;28;20717;-71
2021/10/23 04:03:43;;;;;;;16.17;7.10;;;;;;;;;;4957114;28;20078;-72
2021/10/23 04:06:09;;;;;;;23.75;7.97;;;;;;;;;;4978361;28;20148;-72
2021/10/23 04:08:36;;;;;;;24.52;7.88;;;;;;;;;;4948574;28;20529;-72
2021/10/23 04:11:02;;;;;;;20.90;8.20;;;;;;;;;;4971153;28;20054;-71
2021/10/23 04:13:28;;;;;;;16.70;7.70;;;;;;;;;;4975180;28;20462;-71
2021/10/23 04:15:55;;;;;;;20.02;8.18;;;;;;;;;;4964132;28;20302;-71
2021/10/23 04:18:21;;;;;;;18.55;8.13;;;;;;;;;;4972509;28;20061;-72
2021/10/23 04:20:48;;;;;;;19.30;7.78;;;;;;;;;;4971002;28;20503;-71
2021/10/23 04:23:14;;;;;;;17.58;7.53;;;;;;;;;;4980104;28;20061;-71
2021/10/23 04:25:40;;;;;;;25.58;7.90;;;;;;;;;;4968425;28;20458;-71
2021/10/23 04:28:06;;;;;;;19.75;8.80;;;;;;;;;;4976180;28;20339;-71
2021/10/23 04:30:33;;;;;;;15.82;8.02;;;;;;;;;;4968909;28;20153;-71
2021/10/23 04:32:59;;;;;;;18.38;8.30;;;;;;;;;;4949968;28;20060;-70
2021/10/23 04:35:26;;;;;;;20.73;8.05;;;;;;;;;;4958485;28;20054;-71
2021/10/23 04:37:52;;;;;;;16.63;7.20;;;;;;;;;;4967330;28;20526;-71
2021/10/23 04:40:19;;;;;;;21.80;8.75;;;;;;;;;;4980210;28;20079;-70
2021/10/23 04:42:45;;;;;;;17.98;8.75;;;;;;;;;;4965055;28;20051;-71
2021/10/23 04:45:12;;;;;;;16.33;7.63;;;;;;;;;;4959457;28;20046;-71
2021/10/23 04:47:38;;;;;;;21.13;9.23;;;;;;;;;;4967902;28;20042;-71
2021/10/23 04:50:04;;;;;;;18.73;7.95;;;;;;;;;;4971290;28;20163;-71
2021/10/23 04:52:31;;;;;;;19.85;7.68;;;;;;;;;;4974205;28;20061;-71
2021/10/23 04:54:57;;;;;;;17.05;8.43;;;;;;;;;;4968682;28;20050;-71
2021/10/23 04:57:23;;;;;;;17.17;8.15;;;;;;;;;;4973250;28;20054;-70
2021/10/23 04:59:50;;;;;;;22.67;8.85;;;;;;;;;;4958927;28;20081;-71
2021/10/23 05:02:16;;;;;;;21.90;7.97;;;;;;;;;;4976278;28;20065;-71
2021/10/23 05:04:43;;;;;;;18.00;8.40;;;;;;;;;;4956614;28;20390;-71
2021/10/23 05:07:09;;;;;;;17.13;8.32;;;;;;;;;;4970032;28;20565;-71
2021/10/23 05:09:35;;;;;;;16.75;8.82;;;;;;;;;;4976468;28;20284;-71
2021/10/23 05:12:02;;;;;;;15.68;7.78;;;;;;;;;;4945611;28;20133;-71
2021/10/23 05:14:28;;;;;;;24.10;9.50;;;;;;;;;;4954064;28;20050;-71
2021/10/23 05:16:54;;;;;;;19.63;9.90;;;;;;;;;;4967154;28;20737;-71
2021/10/23 05:19:21;;;;;;;19.05;7.57;;;;;;;;;;4978709;28;20096;-71
2021/10/23 05:21:47;;;;;;;14.93;8.50;;;;;;;;;;4955127;28;20426;-71
2021/10/23 05:24:14;;;;;;;15.90;9.13;;;;;;;;;;4971045;28;20050;-71
2021/10/23 05:26:40;;;;;;;23.70;10.15;;;;;;;;;;4967917;28;20049;-71
2021/10/23 05:29:06;;;;;;;19.25;9.27;;;;;;;;;;4952349;28;20133;-71
2021/10/23 05:31:33;;;;;;;23.77;8.65;;;;;;;;;;4975956;28;20050;-71
2021/10/23 05:33:59;;;;;;;20.67;9.00;;;;;;;;;;4962751;28;20344;-71
2021/10/23 05:36:25;;;;;;;13.57;7.50;;;;;;;;;;4958881;28;20054;-71
2021/10/23 05:38:51;;;;;;;19.20;8.75;;;;;;;;;;4969270;28;20773;-71
2021/10/23 05:41:18;;;;;;;16.52;8.70;;;;;;;;;;4964849;28;20073;-70
2021/10/23 05:43:44;;;;;;;21.50;9.90;;;;;;;;;;4966661;28;20046;-70
2021/10/23 05:46:10;;;;;;;16.80;9.60;;;;;;;;;;4951779;28;20054;-70
2021/10/23 05:48:37;;;;;;;15.05;8.73;;;;;;;;;;4973631;28;20315;-70
2021/10/23 05:51:03;;;;;;;16.52;8.45;;;;;;;;;;4974337;28;20085;-71
2021/10/23 05:53:30;;;;;;;19.25;8.63;;;;;;;;;;4966476;28;20043;-71
2021/10/23 05:55:56;;;;;;;19.17;8.88;;;;;;;;;;4973249;28;20051;-71
2021/10/23 05:58:22;;;;;;;19.75;9.18;;;;;;;;;;4969472;28;20058;-70
2021/10/23 06:00:51;;;;;;;27.85;10.95;;;;;;;;;;4971969;28;20055;-71
2021/10/23 06:03:20;;;;;;;;;;;;;;;;;;4970918;28;20051;-70
2021/10/23 06:05:46;;;;;;;18.42;8.73;;;;;;;;;;4966158;28;20235;-70
2021/10/23 06:08:13;;;;;;;25.58;9.30;;;;;;;;;;4972392;28;20055;-70
2021/10/23 06:10:39;;;;;;;16.27;9.82;;;;;;;;;;4965050;28;20169;-70
2021/10/23 06:13:05;;;;;;;17.65;8.98;;;;;;;;;;4980132;28;20639;-70
2021/10/23 06:15:32;;;;;;;22.70;9.13;;;;;;;;;;4974642;28;20712;-70
2021/10/23 06:18:01;;;;;;;20.58;10.65;;;;;;;;;;4970243;28;20466;-70
2021/10/23 06:20:28;;;;;;;20.08;9.95;;;;;;;;;;4970168;28;20230;-71
2021/10/23 06:22:54;;;;;;;26.35;11.52;;;;;;;;;;4978073;28;20056;-70
2021/10/23 06:25:21;;;;;;;22.92;11.38;;;;;;;;;;4971141;28;20065;-71
2021/10/23 06:27:47;;;;;;;29.23;11.55;;;;;;;;;;4976875;28;20388;-71
2021/10/23 06:30:14;;;;;;;42.63;11.77;;;;;;;;;;4975573;28;20053;-71
2021/10/23 06:32:58;;;;;;;29.90;12.32;;;;;;;;;;4964030;28;20495;-71
2021/10/23 06:35:25;;;;;;;52.72;13.85;;;;;;;;;;4956820;28;20046;-71
2021/10/23 06:37:52;;;;;;;43.10;13.35;;;;;;;;;;4974306;28;20490;-71
2021/10/23 06:40:21;;;;;;;45.38;13.10;;;;;;;;;;4977169;28;20085;-71
2021/10/23 06:42:47;;;;;;;29.60;11.75;;;;;;;;;;4968652;28;20051;-71
2021/10/23 06:45:14;;;;;;;97.20;14.88;;;;;;;;;;4974245;28;20050;-71
2021/10/23 06:47:40;;;;;;;50.28;14.15;;;;;;;;;;4974971;28;20050;-71
2021/10/23 06:50:08;;;;;;;67.32;14.48;;;;;;;;;;4965816;28;20050;-71
2021/10/23 06:52:34;;;;;;;72.97;15.57;;;;;;;;;;4976357;28;20282;-71
2021/10/23 06:55:01;;;;;;;69.60;14.82;;;;;;;;;;4969732;28;20058;-71
2021/10/23 06:57:27;;;;;;;49.65;14.98;;;;;;;;;;4970955;28;20046;-71
2021/10/23 06:59:54;;;;;;;55.33;14.52;;;;;;;;;;4967301;28;20078;-71
2021/10/23 07:02:21;;;;;;;55.67;14.77;;;;;;;;;;4961053;28;20056;-71
2021/10/23 07:04:47;;;;;;;47.95;17.08;;;;;;;;;;4955122;28;20082;-70
2021/10/23 07:07:14;;;;;;;28.85;16.40;;;;;;;;;;4969279;28;20449;-71
2021/10/23 07:09:40;;;;;;;40.60;16.75;;;;;;;;;;4972004;28;20273;-71
2021/10/23 07:12:06;;;;;;;70.30;18.30;;;;;;;;;;4967001;28;20047;-71
2021/10/23 07:14:32;;;;;;;38.80;17.70;;;;;;;;;;4973862;28;20065;-71
2021/10/23 07:16:59;;;;;;;75.85;18.63;;;;;;;;;;4971003;28;20414;-71
2021/10/23 07:19:25;;;;;;;34.40;17.02;;;;;;;;;;4970601;28;20145;-71
2021/10/23 07:21:51;;;;;;;51.65;19.38;;;;;;;;;;4976883;28;20159;-71
2021/10/23 07:24:19;;;;;;;69.78;19.38;;;;;;;;;;4965280;28;20050;-70
2021/10/23 07:26:47;;;;;;;85.95;20.30;;;;;;;;;;4970551;28;20044;-70
2021/10/23 07:29:13;;;;;;;119.30;20.98;;;;;;;;;;4967891;28;20050;-71
2021/10/23 07:31:40;;;;;;;93.60;20.55;;;;;;;;;;4973093;28;20483;-71
2021/10/23 07:34:07;;;;;;;57.65;18.92;;;;;;;;;;4975446;28;20209;-71
2021/10/23 07:36:33;;;;;;;69.68;19.80;;;;;;;;;;4971302;28;20046;-71
2021/10/23 07:38:59;;;;;;;48.15;20.77;;;;;;;;;;4952597;28;20122;-71
2021/10/23 07:41:26;;;;;;;111.00;20.38;;;;;;;;;;4966779;28;20042;-71
2021/10/23 07:43:52;;;;;;;93.72;20.52;;;;;;;;;;4974625;28;20046;-71
2021/10/23 07:46:18;;;;;;;51.58;20.67;;;;;;;;;;4971287;28;20043;-71
2021/10/23 07:48:45;;;;;;;50.80;18.42;;;;;;;;;;4974383;28;20050;-71
2021/10/23 07:51:12;;;;;;;55.78;19.65;;;;;;;;;;4974614;28;20050;-72
2021/10/23 07:53:38;;;;;;;43.33;19.55;;;;;;;;;;4966869;28;20050;-71
2021/10/23 07:56:05;;;;;;;39.78;20.05;;;;;;;;;;4970680;28;20043;-72
2021/10/23 07:58:31;;;;;;;37.60;18.83;;;;;;;;;;4970386;28;20092;-71
2021/10/23 08:00:58;;;;;;;34.63;20.20;;;;;;;;;;4956610;28;20051;-71
2021/10/23 08:03:25;;;;;;;45.13;20.33;;;;;;;;;;4970546;28;20050;-71
2021/10/23 08:05:51;;;;;;;32.75;18.92;;;;;;;;;;4970342;28;20046;-71
2021/10/23 08:08:17;;;;;;;33.10;20.17;;;;;;;;;;4968514;28;20752;-71
2021/10/23 08:10:44;;;;;;;33.17;20.05;;;;;;;;;;4973062;28;20495;-71
2021/10/23 08:13:10;;;;;;;37.53;20.05;;;;;;;;;;4966331;28;20065;-71
2021/10/23 08:15:37;;;;;;;27.95;18.20;;;;;;;;;;4944002;28;20519;-71
2021/10/23 08:18:03;;;;;;;32.90;20.25;;;;;;;;;;4973919;28;20065;-72
2021/10/23 08:20:30;;;;;;;33.15;19.67;;;;;;;;;;4970340;28;20049;-71
2021/10/23 08:22:57;;;;;;;32.90;19.17;;;;;;;;;;4965206;28;20057;-71
2021/10/23 08:25:23;;;;;;;35.72;20.63;;;;;;;;;;4964630;28;20061;-72
2021/10/23 08:27:49;;;;;;;30.15;19.90;;;;;;;;;;4971601;28;20415;-71
2021/10/23 08:30:17;;;;;;;32.38;20.15;;;;;;;;;;4977901;28;20042;-71
2021/10/23 08:32:44;;;;;;;33.80;21.23;;;;;;;;;;4963295;28;20133;-71
2021/10/23 08:35:11;;;;;;;33.85;20.15;;;;;;;;;;4969573;28;20811;-72
2021/10/23 08:37:38;;;;;;;31.73;19.58;;;;;;;;;;4964061;28;20451;-71
2021/10/23 08:40:05;;;;;;;35.40;19.48;;;;;;;;;;4974434;28;20129;-71
2021/10/23 08:42:31;;;;;;;30.83;20.27;;;;;;;;;;4973586;28;20054;-72
2021/10/23 08:44:59;;;;;;;32.72;20.75;;;;;;;;;;4969873;28;20414;-72
2021/10/23 08:47:27;;;;;;;32.10;20.65;;;;;;;;;;4968654;28;20054;-71
2021/10/23 08:49:55;;;;;;;32.90;21.08;;;;;;;;;;4965214;28;20053;-71
2021/10/23 08:52:21;;;;;;;32.15;20.20;;;;;;;;;;4973363;28;20062;-72
2021/10/23 08:54:48;;;;;;;34.72;21.02;;;;;;;;;;4966009;28;20252;-71
2021/10/23 08:57:14;;;;;;;35.67;20.50;;;;;;;;;;4972029;28;20050;-72
2021/10/23 08:59:42;;;;;;;39.42;20.88;;;;;;;;;;4977985;28;20057;-72
2021/10/23 09:02:10;;;;;;;36.17;20.35;;;;;;;;;;4961851;28;20297;-71
2021/10/23 09:04:36;;;;;;;30.98;19.63;;;;;;;;;;4970186;28;20050;-71
2021/10/23 09:07:07;;;;;;;33.22;19.42;;;;;;;;;;4948906;28;20161;-71
2021/10/23 09:09:42;;;;;;;37.53;20.70;;;;;;;;;;4961861;28;20055;-71
2021/10/23 09:12:15;;;;;;;33.90;19.90;;;;;;;;;;4974533;28;20070;-72
2021/10/23 09:14:42;;;;;;;30.02;18.85;;;;;;;;;;4974368;28;20042;-71
2021/10/23 09:17:09;;;;;;;34.08;19.33;;;;;;;;;;4966886;28;20069;-72
2021/10/23 09:19:35;;;;;;;35.97;21.35;;;;;;;;;;4967728;28;20054;-71
2021/10/23 09:22:03;;;;;;;37.10;20.95;;;;;;;;;;4973420;28;20073;-71
2021/10/23 09:24:29;;;;;;;37.67;21.45;;;;;;;;;;4970222;28;20060;-71
2021/10/23 09:26:55;;;;;;;40.03;21.13;;;;;;;;;;4961169;28;20051;-71
2021/10/23 09:29:24;;;;;;;42.00;23.92;;;;;;;;;;4972169;28;20051;-71
2021/10/23 09:32:10;;;;;;;40.95;21.70;;;;;;;;;;4966995;28;20478;-71
2021/10/23 09:34:37;;;;;;;44.08;22.13;;;;;;;;;;4968001;28;20051;-71
2021/10/23 09:37:04;;;;;;;34.10;19.08;;;;;;;;;;4978450;28;20612;-72
2021/10/23 09:39:38;;;;;;;35.83;20.13;;;;;;;;;;4970400;28;20055;-72
2021/10/23 09:42:06;;;;;;;34.08;18.95;;;;;;;;;;4972178;28;20144;-71
2021/10/23 09:44:33;;;;;;;38.75;21.08;;;;;;;;;;4951883;28;20050;-71
2021/10/23 09:47:00;;;;;;;32.35;19.88;;;;;;;;;;4948441;28;20398;-71
2021/10/23 09:49:27;;;;;;;31.55;19.20;;;;;;;;;;4975721;28;20085;-71
2021/10/23 09:52:03;;;;;;;39.88;21.95;;;;;;;;;;4968322;28;20050;-71
2021/10/23 09:54:30;;;;;;;33.78;19.80;;;;;;;;;;4977191;28;20422;-72
2021/10/23 09:56:56;;;;;;;36.22;20.35;;;;;;;;;;4967189;28;20499;-73
2021/10/23 09:59:29;;;;;;;34.58;20.75;;;;;;;;;;4964762;28;20050;-71
2021/10/23 10:01:56;;;;;;;38.33;20.88;;;;;;;;;;4965733;28;20054;-71
2021/10/23 10:04:23;;;;;;;33.75;19.63;;;;;;;;;;4959256;28;20035;-71
2021/10/23 10:06:50;;;;;;;34.92;20.13;;;;;;;;;;4952610;28;20174;-72
2021/10/23 10:09:20;;;;;;;35.08;20.65;;;;;;;;;;4962552;28;20558;-71
2021/10/23 10:11:48;;;;;;;33.80;20.50;;;;;;;;;;4970188;28;20645;-71
2021/10/23 10:14:16;;;;;;;37.30;21.20;;;;;;;;;;4961860;28;20038;-73
2021/10/23 10:16:45;;;;;;;35.65;20.52;;;;;;;;;;4971022;28;20042;-71
2021/10/23 10:19:13;;;;;;;37.20;20.95;;;;;;;;;;4972448;28;20517;-71
2021/10/23 10:21:41;;;;;;;32.05;19.05;;;;;;;;;;4944811;28;20078;-71
2021/10/23 10:24:25;;;;;;;34.78;17.48;;;;;;;;;;4964874;28;20526;-72
2021/10/23 10:27:00;;;;;;;43.28;21.20;;;;;;;;;;4957863;28;20466;-72
2021/10/23 10:29:51;;;;;;;32.10;18.92;;;;;;;;;;4972907;28;20054;-72
2021/10/23 10:32:22;;;;;;;33.38;17.77;;;;;;;;;;4964350;28;20128;-72
2021/10/23 10:39:56;;;;;;;36.05;18.40;;;;;;;;;;4962918;28;20252;-72
2021/10/23 10:42:50;;;;;;;30.27;16.92;;;;;;;;;;4959510;28;20054;-72
2021/10/23 10:45:22;;;;;;;30.58;17.83;;;;;;;;;;4963058;28;20054;-72
2021/10/23 10:48:07;;;;;;;35.00;18.17;;;;;;;;;;4969401;28;20046;-72
2021/10/23 10:50:34;;;;;;;38.33;19.30;;;;;;;;;;4966884;28;20054;-72
2021/10/23 10:53:12;;;;;;;38.57;19.37;;;;;;;;;;4963725;28;20050;-72
2021/10/23 10:55:40;;;;;;;33.25;18.08;;;;;;;;;;4966152;28;20042;-72
2021/10/23 10:58:09;;;;;;;;;;;;;;;;;;4976944;28;20046;-72
2021/10/23 11:00:52;;;;;;;30.42;17.73;;;;;;;;;;4967958;28;19925;-72
2021/10/23 11:03:36;;;;;;;37.88;17.42;;;;;;;;;;4977914;28;20046;-72
2021/10/23 11:06:23;;;;;;;36.05;18.25;;;;;;;;;;4971944;28;20052;-72
2021/10/23 11:09:09;;;;;;;41.35;17.77;;;;;;;;;;4957360;28;20054;-72
2021/10/23 11:11:45;;;;;;;37.63;18.38;;;;;;;;;;4983318;28;20072;-71
2021/10/23 11:16:53;;;;;;;37.67;18.33;;;;;;;;;;4982815;28;20330;-71
2021/10/23 11:19:39;;;;;;;35.15;19.05;;;;;;;;;;4962798;28;20081;-71
2021/10/23 11:22:15;;;;;;;44.08;16.92;;;;;;;;;;4958033;28;20050;-71
2021/10/23 11:24:42;;;;;;;33.40;14.88;;;;;;;;;;4968038;28;20062;-70
2021/10/23 11:27:22;;;;;;;33.15;15.93;;;;;;;;;;4977883;28;20046;-71
2021/10/23 11:29:59;;;;;;;31.23;16.15;;;;;;;;;;4974715;28;20130;-71
2021/10/23 11:32:25;;;;;;;36.65;16.63;;;;;;;;;;4974114;28;20054;-71
2021/10/23 11:34:52;;;;;;;36.33;15.52;;;;;;;;;;4966805;28;20058;-71
2021/10/23 11:37:23;;;;;;;27.20;14.65;;;;;;;;;;4981487;28;20058;-71
2021/10/23 11:39:59;;;;;;;30.75;15.25;;;;;;;;;;4976131;28;20054;-72
2021/10/23 11:42:27;;;;;;;31.85;15.93;;;;;;;;;;4976202;28;20042;-72
2021/10/23 11:45:11;;;;;;;25.15;13.07;;;;;;;;;;4962827;28;20074;-72
2021/10/23 11:47:56;;;;;;;29.95;13.88;;;;;;;;;;4968913;28;20066;-71
2021/10/23 11:50:39;;;;;;;30.17;13.90;;;;;;;;;;4970559;28;20065;-71
2021/10/23 11:53:30;;;;;;;29.75;14.73;;;;;;;;;;4973438;28;20164;-71
2021/10/23 11:56:07;;;;;;;31.88;15.50;;;;;;;;;;4975732;28;20411;-71
2021/10/23 11:58:35;;;;;;;32.42;15.05;;;;;;;;;;4979701;28;20053;-71
2021/10/23 12:01:07;;;;;;;29.10;14.27;;;;;;;;;;4975906;28;20051;-71
2021/10/23 12:03:39;;;;;;;30.95;15.65;;;;;;;;;;4966830;28;20055;-71
2021/10/23 12:06:22;;;;;;;33.55;16.88;;;;;;;;;;4978419;28;20114;-71
2021/10/23 12:08:49;;;;;;;29.23;16.33;;;;;;;;;;4974941;28;20050;-73
2021/10/23 12:11:17;;;;;;;34.85;15.85;;;;;;;;;;4991128;28;20508;-71
2021/10/23 12:13:43;;;;;;;37.22;17.65;;;;;;;;;;4982753;28;20046;-70
2021/10/23 12:16:10;;;;;;;33.65;15.95;;;;;;;;;;4977642;28;20046;-70
2021/10/23 12:18:38;;;;;;;32.58;15.05;;;;;;;;;;4980408;28;20118;-70
2021/10/23 12:21:11;;;;;;;35.75;17.00;;;;;;;;;;4977514;28;20137;-71
2021/10/23 12:23:54;;;;;;;36.92;16.85;;;;;;;;;;4987358;28;20061;-70
2021/10/23 12:26:24;;;;;;;36.85;17.58;;;;;;;;;;4976257;28;20049;-70
2021/10/23 12:28:59;;;;;;;38.40;18.35;;;;;;;;;;4986642;28;20042;-69
2021/10/23 12:31:26;;;;;;;39.20;17.77;;;;;;;;;;4976426;28;20057;-72
2021/10/23 12:34:05;;;;;;;41.38;18.30;;;;;;;;;;4978695;28;20050;-71
2021/10/23 12:36:32;;;;;;;39.13;17.95;;;;;;;;;;4987733;28;20054;-71
2021/10/23 12:39:18;;;;;;;45.90;19.73;;;;;;;;;;4974835;28;20047;-71
2021/10/23 12:41:44;;;;;;;39.25;17.92;;;;;;;;;;4985321;28;20057;-70
2021/10/23 12:44:16;;;;;;;36.33;18.73;;;;;;;;;;4957170;28;20744;-70
2021/10/23 12:46:42;;;;;;;41.72;19.92;;;;;;;;;;4986435;28;20068;-70
2021/10/23 12:49:09;;;;;;;49.35;20.40;;;;;;;;;;4978842;28;20050;-70
2021/10/23 12:51:35;;;;;;;37.63;18.73;;;;;;;;;;4981004;28;20455;-70
2021/10/23 12:54:01;;;;;;;38.10;19.02;;;;;;;;;;4980562;28;20491;-71
2021/10/23 12:56:28;;;;;;;36.35;19.05;;;;;;;;;;4973444;28;20447;-70
2021/10/23 12:58:54;;;;;;;39.42;20.67;;;;;;;;;;4977399;28;20049;-71
2021/10/23 13:01:22;;;;;;;40.55;20.33;;;;;;;;;;4972325;28;20060;-70
2021/10/23 13:03:48;;;;;;;39.03;17.60;;;;;;;;;;4978591;28;20410;-70
2021/10/23 13:06:15;;;;;;;36.65;17.00;;;;;;;;;;4978283;28;20050;-71
2021/10/23 13:08:42;;;;;;;42.97;18.65;;;;;;;;;;4976086;28;20050;-70
2021/10/23 13:11:09;;;;;;;37.90;19.35;;;;;;;;;;4973468;28;20054;-70
2021/10/23 13:13:36;;;;;;;41.22;20.20;;;;;;;;;;4979656;28;20050;-73
2021/10/23 13:16:02;;;;;;;38.40;17.80;;;;;;;;;;4966134;28;20426;-72
2021/10/23 13:18:34;;;;;;;40.55;19.05;;;;;;;;;;4979714;28;20628;-70
2021/10/23 13:21:01;;;;;;;40.92;18.20;;;;;;;;;;4976678;28;20054;-71
2021/10/23 13:23:28;;;;;;;43.40;16.73;;;;;;;;;;4969536;28;20054;-71
2021/10/23 13:25:54;;;;;;;48.03;17.63;;;;;;;;;;4983979;28;20042;-70
2021/10/23 13:28:21;;;;;;;38.80;18.60;;;;;;;;;;4978422;28;20589;-71
2021/10/23 13:30:47;;;;;;;45.95;18.75;;;;;;;;;;4957871;28;20046;-70
2021/10/23 13:33:13;;;;;;;38.17;18.33;;;;;;;;;;4985305;28;20173;-71
2021/10/23 13:35:39;;;;;;;41.63;18.65;;;;;;;;;;4977661;28;20117;-71
2021/10/23 13:38:06;;;;;;;41.22;17.60;;;;;;;;;;4977577;28;20046;-71
2021/10/23 13:40:32;;;;;;;36.75;17.27;;;;;;;;;;4955372;28;20055;-72
2021/10/23 13:42:59;;;;;;;33.35;16.20;;;;;;;;;;4970532;28;20065;-72
2021/10/23 13:45:26;;;;;;;41.10;17.05;;;;;;;;;;4980689;28;20046;-72
2021/10/23 13:47:52;;;;;;;31.70;15.73;;;;;;;;;;4971311;28;20412;-72
2021/10/23 13:50:18;;;;;;;24.35;13.05;;;;;;;;;;4963966;28;20411;-70
2021/10/23 13:52:45;;;;;;;33.55;15.27;;;;;;;;;;4970817;28;20400;-70
2021/10/23 13:55:11;;;;;;;31.63;14.05;;;;;;;;;;4983777;28;20043;-71
2021/10/23 13:57:38;;;;;;;31.75;13.93;;;;;;;;;;4978649;28;20042;-68
2021/10/23 14:00:05;;;;;;;27.13;13.95;;;;;;;;;;4977120;28;20046;-67
2021/10/23 14:02:31;;;;;;;28.88;14.35;;;;;;;;;;4966414;28;20068;-71
2021/10/23 14:04:58;;;;;;;27.58;13.30;;;;;;;;;;4952075;28;20084;-69
2021/10/23 14:07:25;;;;;;;32.60;14.02;;;;;;;;;;4972622;28;20042;-70
2021/10/23 14:09:51;;;;;;;31.02;12.65;;;;;;;;;;4975917;28;20410;-71
2021/10/23 14:12:18;;;;;;;24.92;12.25;;;;;;;;;;4984040;28;20154;-70
2021/10/23 14:14:45;;;;;;;27.80;13.68;;;;;;;;;;4973289;28;20038;-70
2021/10/23 14:17:11;;;;;;;25.15;12.48;;;;;;;;;;4984312;28;20570;-71
2021/10/23 14:19:37;;;;;;;30.88;14.07;;;;;;;;;;4990138;28;20053;-71
2021/10/23 14:22:07;;;;;;;27.95;13.82;;;;;;;;;;4968917;28;20042;-71
2021/10/23 14:24:33;;;;;;;30.75;12.18;;;;;;;;;;4992222;28;20174;-70
2021/10/23 14:27:03;;;;;;;27.73;12.20;;;;;;;;;;4986198;28;20499;-70
2021/10/23 14:29:30;;;;;;;27.98;12.80;;;;;;;;;;4965955;28;20054;-70
2021/10/23 14:31:56;;;;;;;24.63;12.70;;;;;;;;;;4977789;28;20078;-70
2021/10/23 14:34:22;;;;;;;25.17;12.15;;;;;;;;;;4984530;28;20541;-72
2021/10/23 14:36:49;;;;;;;25.90;13.10;;;;;;;;;;4987315;28;20081;-70